sensor_id;sensor_type;location;lat;lon;timestamp;temperature;humidity
17728;DHT22;8984;49.268;12.302;2023-08-06T00:00:21;18.30;99.90
17728;DHT22;8984;49.268;12.302;2023-08-06T00:02:48;18.20;99.90
17728;DHT22;8984;49.268;12.302;2023-08-06T00:05:15;18.20;99.90
17728;DHT22;8984;49.268;12.302;2023-08-06T00:07:43;18.20;99.90
17728;DHT22;8984;49.268;12.302;2023-08-06T00:10:10;18.10;99.90
17728;DHT22;8984;49.268;12.302;2023-08-06T00:12:38;18.10;99.90
17728;DHT22;8984;49.268;12.302;2023-08-06T00:15:06;18.10;99.90
17728;DHT22;8984;49.268;12.302;2023-08-06T00:17:33;18.10;99.90
17728;DHT22;8984;49.268;12.302;2023-08-06T00:20:00;18.00;99.90
17728;DHT22;8984;49.268;12.302;2023-08-06T00:22:30;18.00;99.90
17728;DHT22;8984;49.268;12.302;2023-08-06T00:24:57;18.00;99.90
17728;DHT22;8984;49.268;12.302;2023-08-06T00:27:24;17.90;99.90
17728;DHT22;8984;49.268;12.302;2023-08-06T00:29:52;17.80;99.90
17728;DHT22;8984;49.268;12.302;2023-08-06T00:32:19;17.80;99.90
17728;DHT22;8984;49.268;12.302;2023-08-06T00:34:46;17.80;99.90
17728;DHT22;8984;49.268;12.302;2023-08-06T00:37:15;17.90;99.90
17728;DHT22;8984;49.268;12.302;2023-08-06T00:39:42;17.90;99.90
17728;DHT22;8984;49.268;12.302;2023-08-06T00:42:09;17.90;99.90
17728;DHT22;8984;49.268;12.302;2023-08-06T00:44:35;18.00;99.90
17728;DHT22;8984;49.268;12.302;2023-08-06T00:47:04;18.00;99.90
17728;DHT22;8984;49.268;12.302;2023-08-06T00:49:31;18.10;99.90
17728;DHT22;8984;49.268;12.302;2023-08-06T00:51:59;18.10;99.90
17728;DHT22;8984;49.268;12.302;2023-08-06T00:54:27;18.10;99.90
17728;DHT22;8984;49.268;12.302;2023-08-06T00:56:54;18.00;99.90
17728;DHT22;8984;49.268;12.302;2023-08-06T00:59:23;17.90;99.90
17728;DHT22;8984;49.268;12.302;2023-08-06T01:01:50;17.80;99.90
17728;DHT22;8984;49.268;12.302;2023-08-06T01:04:18;17.80;99.90
17728;DHT22;8984;49.268;12.302;2023-08-06T01:06:48;17.80;99.90
17728;DHT22;8984;49.268;12.302;2023-08-06T01:09:25;18.00;99.90
17728;DHT22;8984;49.268;12.302;2023-08-06T01:11:59;18.00;99.90
17728;DHT22;8984;49.268;12.302;2023-08-06T01:14:32;17.90;99.90
17728;DHT22;8984;49.268;12.302;2023-08-06T01:17:01;18.00;99.90
17728;DHT22;8984;49.268;12.302;2023-08-06T01:19:31;17.90;99.90
17728;DHT22;8984;49.268;12.302;2023-08-06T01:21:59;18.00;99.90
17728;DHT22;8984;49.268;12.302;2023-08-06T01:24:26;18.00;99.90
17728;DHT22;8984;49.268;12.302;2023-08-06T01:27:01;18.10;99.90
17728;DHT22;8984;49.268;12.302;2023-08-06T01:29:33;18.20;99.90
17728;DHT22;8984;49.268;12.302;2023-08-06T01:32:02;18.20;99.90
17728;DHT22;8984;49.268;12.302;2023-08-06T01:34:32;18.00;99.90
17728;DHT22;8984;49.268;12.302;2023-08-06T01:37:02;17.90;99.90
17728;DHT22;8984;49.268;12.302;2023-08-06T01:39:30;18.00;99.90
17728;DHT22;8984;49.268;12.302;2023-08-06T01:41:59;18.10;99.90
17728;DHT22;8984;49.268;12.302;2023-08-06T01:44:26;18.10;99.90
17728;DHT22;8984;49.268;12.302;2023-08-06T01:46:53;17.90;99.90
17728;DHT22;8984;49.268;12.302;2023-08-06T01:49:19;17.80;99.90
17728;DHT22;8984;49.268;12.302;2023-08-06T01:51:46;17.70;99.90
17728;DHT22;8984;49.268;12.302;2023-08-06T01:54:14;17.80;99.90
17728;DHT22;8984;49.268;12.302;2023-08-06T01:56:41;17.80;99.90
17728;DHT22;8984;49.268;12.302;2023-08-06T01:59:08;17.70;99.90
17728;DHT22;8984;49.268;12.302;2023-08-06T02:01:35;17.70;99.90
17728;DHT22;8984;49.268;12.302;2023-08-06T02:04:01;17.70;99.90
17728;DHT22;8984;49.268;12.302;2023-08-06T02:06:28;17.60;99.90
17728;DHT22;8984;49.268;12.302;2023-08-06T02:08:55;17.60;99.90
17728;DHT22;8984;49.268;12.302;2023-08-06T02:11:23;17.60;99.90
17728;DHT22;8984;49.268;12.302;2023-08-06T02:13:50;17.70;99.90
17728;DHT22;8984;49.268;12.302;2023-08-06T02:16:17;17.80;99.90
17728;DHT22;8984;49.268;12.302;2023-08-06T02:18:44;17.60;99.90
17728;DHT22;8984;49.268;12.302;2023-08-06T02:21:10;17.60;99.90
17728;DHT22;8984;49.268;12.302;2023-08-06T02:23:37;17.70;99.90
17728;DHT22;8984;49.268;12.302;2023-08-06T02:26:04;17.50;99.90
17728;DHT22;8984;49.268;12.302;2023-08-06T02:28:33;17.50;99.90
17728;DHT22;8984;49.268;12.302;2023-08-06T02:30:59;17.50;99.90
17728;DHT22;8984;49.268;12.302;2023-08-06T02:33:26;17.60;99.90
17728;DHT22;8984;49.268;12.302;2023-08-06T02:35:59;17.50;99.90
17728;DHT22;8984;49.268;12.302;2023-08-06T02:38:26;17.60;99.90
17728;DHT22;8984;49.268;12.302;2023-08-06T02:40:53;17.50;99.90
17728;DHT22;8984;49.268;12.302;2023-08-06T02:43:20;17.40;99.90
17728;DHT22;8984;49.268;12.302;2023-08-06T02:45:48;17.30;99.90
17728;DHT22;8984;49.268;12.302;2023-08-06T02:48:14;17.20;99.90
17728;DHT22;8984;49.268;12.302;2023-08-06T02:50:43;17.20;99.90
17728;DHT22;8984;49.268;12.302;2023-08-06T02:53:10;17.20;99.90
17728;DHT22;8984;49.268;12.302;2023-08-06T02:55:37;17.10;99.90
17728;DHT22;8984;49.268;12.302;2023-08-06T02:58:03;17.20;99.90
17728;DHT22;8984;49.268;12.302;2023-08-06T03:00:30;17.10;99.90
17728;DHT22;8984;49.268;12.302;2023-08-06T03:02:58;17.10;99.90
17728;DHT22;8984;49.268;12.302;2023-08-06T03:05:25;17.00;99.90
17728;DHT22;8984;49.268;12.302;2023-08-06T03:07:52;17.00;99.90
17728;DHT22;8984;49.268;12.302;2023-08-06T03:10:19;17.00;99.90
17728;DHT22;8984;49.268;12.302;2023-08-06T03:12:45;17.00;99.90
17728;DHT22;8984;49.268;12.302;2023-08-06T03:15:12;17.10;99.90
17728;DHT22;8984;49.268;12.302;2023-08-06T03:17:39;17.10;99.90
17728;DHT22;8984;49.268;12.302;2023-08-06T03:20:08;17.20;99.90
17728;DHT22;8984;49.268;12.302;2023-08-06T03:22:35;17.10;99.90
17728;DHT22;8984;49.268;12.302;2023-08-06T03:25:02;17.10;99.90
17728;DHT22;8984;49.268;12.302;2023-08-06T03:27:29;17.10;99.90
17728;DHT22;8984;49.268;12.302;2023-08-06T03:29:56;17.00;99.90
17728;DHT22;8984;49.268;12.302;2023-08-06T03:32:22;16.90;99.90
17728;DHT22;8984;49.268;12.302;2023-08-06T03:34:49;16.90;99.90
17728;DHT22;8984;49.268;12.302;2023-08-06T03:37:18;16.90;99.90
17728;DHT22;8984;49.268;12.302;2023-08-06T03:39:44;16.80;99.90
17728;DHT22;8984;49.268;12.302;2023-08-06T03:42:11;16.60;99.90
17728;DHT22;8984;49.268;12.302;2023-08-06T03:44:38;16.70;99.90
17728;DHT22;8984;49.268;12.302;2023-08-06T03:47:05;16.70;99.90
17728;DHT22;8984;49.268;12.302;2023-08-06T03:49:32;16.80;99.90
17728;DHT22;8984;49.268;12.302;2023-08-06T03:51:58;16.80;99.90
17728;DHT22;8984;49.268;12.302;2023-08-06T03:54:27;16.90;99.90
17728;DHT22;8984;49.268;12.302;2023-08-06T03:56:53;16.90;99.90
17728;DHT22;8984;49.268;12.302;2023-08-06T03:59:20;16.90;99.90
17728;DHT22;8984;49.268;12.302;2023-08-06T04:01:47;16.90;99.90
17728;DHT22;8984;49.268;12.302;2023-08-06T04:04:14;17.00;99.90
17728;DHT22;8984;49.268;12.302;2023-08-06T04:06:40;16.90;99.90
17728;DHT22;8984;49.268;12.302;2023-08-06T04:09:07;17.00;99.90
17728;DHT22;8984;49.268;12.302;2023-08-06T04:11:35;16.90;99.90
17728;DHT22;8984;49.268;12.302;2023-08-06T04:14:02;16.80;99.90
17728;DHT22;8984;49.268;12.302;2023-08-06T04:16:29;16.80;99.90
17728;DHT22;8984;49.268;12.302;2023-08-06T04:18:55;16.80;99.90
17728;DHT22;8984;49.268;12.302;2023-08-06T04:21:23;16.90;99.90
17728;DHT22;8984;49.268;12.302;2023-08-06T04:23:50;16.80;99.90
17728;DHT22;8984;49.268;12.302;2023-08-06T04:26:17;16.90;99.90
17728;DHT22;8984;49.268;12.302;2023-08-06T04:28:45;16.80;99.90
17728;DHT22;8984;49.268;12.302;2023-08-06T04:31:12;16.80;99.90
17728;DHT22;8984;49.268;12.302;2023-08-06T04:33:38;16.90;99.90
17728;DHT22;8984;49.268;12.302;2023-08-06T04:36:06;17.00;99.90
17728;DHT22;8984;49.268;12.302;2023-08-06T04:38:32;16.90;99.90
17728;DHT22;8984;49.268;12.302;2023-08-06T04:40:59;16.90;99.90
17728;DHT22;8984;49.268;12.302;2023-08-06T04:43:26;16.90;99.90
17728;DHT22;8984;49.268;12.302;2023-08-06T04:45:55;16.90;99.90
17728;DHT22;8984;49.268;12.302;2023-08-06T04:48:21;16.80;99.90
17728;DHT22;8984;49.268;12.302;2023-08-06T04:50:50;16.80;99.90
17728;DHT22;8984;49.268;12.302;2023-08-06T04:53:16;16.90;99.90
17728;DHT22;8984;49.268;12.302;2023-08-06T04:55:43;16.90;99.90
17728;DHT22;8984;49.268;12.302;2023-08-06T04:58:10;16.90;99.90
17728;DHT22;8984;49.268;12.302;2023-08-06T05:00:37;16.90;99.90
17728;DHT22;8984;49.268;12.302;2023-08-06T05:03:06;16.90;99.90
17728;DHT22;8984;49.268;12.302;2023-08-06T05:05:32;16.90;99.90
17728;DHT22;8984;49.268;12.302;2023-08-06T05:07:59;16.80;99.90
17728;DHT22;8984;49.268;12.302;2023-08-06T05:10:26;16.90;99.90
17728;DHT22;8984;49.268;12.302;2023-08-06T05:12:53;16.90;99.90
17728;DHT22;8984;49.268;12.302;2023-08-06T05:15:20;17.10;99.90
17728;DHT22;8984;49.268;12.302;2023-08-06T05:17:47;17.10;99.90
17728;DHT22;8984;49.268;12.302;2023-08-06T05:20:15;17.20;99.90
17728;DHT22;8984;49.268;12.302;2023-08-06T05:22:43;17.30;99.90
17728;DHT22;8984;49.268;12.302;2023-08-06T05:25:13;17.50;99.90
17728;DHT22;8984;49.268;12.302;2023-08-06T05:27:40;17.70;99.90
17728;DHT22;8984;49.268;12.302;2023-08-06T05:30:08;17.80;99.90
17728;DHT22;8984;49.268;12.302;2023-08-06T05:32:35;17.80;99.90
17728;DHT22;8984;49.268;12.302;2023-08-06T05:35:01;18.00;99.90
17728;DHT22;8984;49.268;12.302;2023-08-06T05:37:30;18.20;99.90
17728;DHT22;8984;49.268;12.302;2023-08-06T05:39:56;18.30;99.90
17728;DHT22;8984;49.268;12.302;2023-08-06T05:42:23;18.20;99.90
17728;DHT22;8984;49.268;12.302;2023-08-06T05:44:50;18.30;99.90
17728;DHT22;8984;49.268;12.302;2023-08-06T05:47:16;18.40;99.90
17728;DHT22;8984;49.268;12.302;2023-08-06T05:49:45;18.40;99.90
17728;DHT22;8984;49.268;12.302;2023-08-06T05:52:11;18.40;99.90
17728;DHT22;8984;49.268;12.302;2023-08-06T05:54:40;18.50;99.90
17728;DHT22;8984;49.268;12.302;2023-08-06T05:57:07;18.60;99.90
17728;DHT22;8984;49.268;12.302;2023-08-06T05:59:33;18.60;99.90
17728;DHT22;8984;49.268;12.302;2023-08-06T06:02:00;18.60;99.90
17728;DHT22;8984;49.268;12.302;2023-08-06T06:04:28;18.70;99.90
17728;DHT22;8984;49.268;12.302;2023-08-06T06:06:55;18.60;99.90
17728;DHT22;8984;49.268;12.302;2023-08-06T06:09:21;18.60;99.90
17728;DHT22;8984;49.268;12.302;2023-08-06T06:11:49;18.50;99.90
17728;DHT22;8984;49.268;12.302;2023-08-06T06:14:16;18.50;99.90
17728;DHT22;8984;49.268;12.302;2023-08-06T06:16:43;18.60;99.90
17728;DHT22;8984;49.268;12.302;2023-08-06T06:19:10;18.40;99.90
17728;DHT22;8984;49.268;12.302;2023-08-06T06:21:37;18.60;99.90
17728;DHT22;8984;49.268;12.302;2023-08-06T06:24:04;18.50;99.90
17728;DHT22;8984;49.268;12.302;2023-08-06T06:26:31;18.50;99.90
17728;DHT22;8984;49.268;12.302;2023-08-06T06:28:59;18.40;99.90
17728;DHT22;8984;49.268;12.302;2023-08-06T06:31:26;18.50;99.90
17728;DHT22;8984;49.268;12.302;2023-08-06T06:33:53;18.50;99.90
17728;DHT22;8984;49.268;12.302;2023-08-06T06:36:20;18.60;99.90
17728;DHT22;8984;49.268;12.302;2023-08-06T06:38:47;18.60;99.90
17728;DHT22;8984;49.268;12.302;2023-08-06T06:41:14;18.60;99.90
17728;DHT22;8984;49.268;12.302;2023-08-06T06:43:41;18.70;99.90
17728;DHT22;8984;49.268;12.302;2023-08-06T06:46:09;18.80;99.90
17728;DHT22;8984;49.268;12.302;2023-08-06T06:48:36;18.70;99.90
17728;DHT22;8984;49.268;12.302;2023-08-06T06:51:03;18.90;99.90
17728;DHT22;8984;49.268;12.302;2023-08-06T06:53:30;18.70;99.90
17728;DHT22;8984;49.268;12.302;2023-08-06T06:56:01;18.90;99.90
17728;DHT22;8984;49.268;12.302;2023-08-06T06:58:28;19.10;99.90
17728;DHT22;8984;49.268;12.302;2023-08-06T07:00:54;19.10;99.90
17728;DHT22;8984;49.268;12.302;2023-08-06T07:03:23;19.20;99.90
17728;DHT22;8984;49.268;12.302;2023-08-06T07:05:50;19.40;99.90
17728;DHT22;8984;49.268;12.302;2023-08-06T07:08:17;19.40;99.90
17728;DHT22;8984;49.268;12.302;2023-08-06T07:10:43;19.60;99.90
17728;DHT22;8984;49.268;12.302;2023-08-06T07:13:10;19.70;99.90
17728;DHT22;8984;49.268;12.302;2023-08-06T07:15:37;19.90;99.90
17728;DHT22;8984;49.268;12.302;2023-08-06T07:18:04;20.20;99.90
17728;DHT22;8984;49.268;12.302;2023-08-06T07:20:32;20.60;99.90
17728;DHT22;8984;49.268;12.302;2023-08-06T07:23:00;20.90;99.90
17728;DHT22;8984;49.268;12.302;2023-08-06T07:25:27;21.00;99.90
17728;DHT22;8984;49.268;12.302;2023-08-06T07:27:54;21.00;99.90
17728;DHT22;8984;49.268;12.302;2023-08-06T07:30:22;21.20;99.90
17728;DHT22;8984;49.268;12.302;2023-08-06T07:32:49;21.40;99.90
17728;DHT22;8984;49.268;12.302;2023-08-06T07:35:15;21.50;99.90
17728;DHT22;8984;49.268;12.302;2023-08-06T07:37:43;21.70;99.90
17728;DHT22;8984;49.268;12.302;2023-08-06T07:40:11;22.00;99.90
17728;DHT22;8984;49.268;12.302;2023-08-06T07:42:38;22.20;99.90
17728;DHT22;8984;49.268;12.302;2023-08-06T07:45:06;22.40;99.90
17728;DHT22;8984;49.268;12.302;2023-08-06T07:47:33;22.50;99.90
17728;DHT22;8984;49.268;12.302;2023-08-06T07:50:00;23.10;99.90
17728;DHT22;8984;49.268;12.302;2023-08-06T07:52:27;22.90;99.90
17728;DHT22;8984;49.268;12.302;2023-08-06T07:54:55;23.00;99.90
17728;DHT22;8984;49.268;12.302;2023-08-06T07:57:21;22.80;99.90
17728;DHT22;8984;49.268;12.302;2023-08-06T07:59:48;22.50;99.90
17728;DHT22;8984;49.268;12.302;2023-08-06T08:02:15;22.30;99.90
17728;DHT22;8984;49.268;12.302;2023-08-06T08:04:42;21.80;99.90
17728;DHT22;8984;49.268;12.302;2023-08-06T08:07:10;21.50;99.90
17728;DHT22;8984;49.268;12.302;2023-08-06T08:09:37;21.30;99.90
17728;DHT22;8984;49.268;12.302;2023-08-06T08:12:05;21.20;99.90
17728;DHT22;8984;49.268;12.302;2023-08-06T08:14:32;21.20;99.90
17728;DHT22;8984;49.268;12.302;2023-08-06T08:17:01;21.10;99.90
17728;DHT22;8984;49.268;12.302;2023-08-06T08:19:29;21.10;99.90
17728;DHT22;8984;49.268;12.302;2023-08-06T08:21:56;21.30;99.90
17728;DHT22;8984;49.268;12.302;2023-08-06T08:24:22;21.10;99.90
17728;DHT22;8984;49.268;12.302;2023-08-06T08:26:50;21.20;99.90
17728;DHT22;8984;49.268;12.302;2023-08-06T08:29:19;21.10;99.90
17728;DHT22;8984;49.268;12.302;2023-08-06T08:31:46;21.30;99.90
17728;DHT22;8984;49.268;12.302;2023-08-06T08:34:14;21.40;99.90
17728;DHT22;8984;49.268;12.302;2023-08-06T08:36:41;21.40;99.90
17728;DHT22;8984;49.268;12.302;2023-08-06T08:39:08;21.60;99.90
17728;DHT22;8984;49.268;12.302;2023-08-06T08:41:36;21.60;99.90
17728;DHT22;8984;49.268;12.302;2023-08-06T08:44:07;21.70;99.90
17728;DHT22;8984;49.268;12.302;2023-08-06T08:46:36;21.80;99.90
17728;DHT22;8984;49.268;12.302;2023-08-06T08:49:04;21.70;99.90
17728;DHT22;8984;49.268;12.302;2023-08-06T08:51:33;21.50;99.90
17728;DHT22;8984;49.268;12.302;2023-08-06T08:54:00;21.40;99.90
17728;DHT22;8984;49.268;12.302;2023-08-06T08:56:29;21.20;99.90
17728;DHT22;8984;49.268;12.302;2023-08-06T08:58:56;21.20;99.90
17728;DHT22;8984;49.268;12.302;2023-08-06T09:01:22;21.10;99.90
17728;DHT22;8984;49.268;12.302;2023-08-06T09:03:51;20.90;99.90
17728;DHT22;8984;49.268;12.302;2023-08-06T09:06:20;20.60;99.90
17728;DHT22;8984;49.268;12.302;2023-08-06T09:08:52;20.60;99.90
17728;DHT22;8984;49.268;12.302;2023-08-06T09:11:21;20.60;99.90
17728;DHT22;8984;49.268;12.302;2023-08-06T09:13:48;20.40;99.90
17728;DHT22;8984;49.268;12.302;2023-08-06T09:16:15;20.50;99.90
17728;DHT22;8984;49.268;12.302;2023-08-06T09:18:41;20.40;99.90
17728;DHT22;8984;49.268;12.302;2023-08-06T09:21:14;20.40;99.90
17728;DHT22;8984;49.268;12.302;2023-08-06T09:23:41;20.70;99.90
17728;DHT22;8984;49.268;12.302;2023-08-06T09:26:11;20.80;99.90
17728;DHT22;8984;49.268;12.302;2023-08-06T09:28:39;21.00;99.90
17728;DHT22;8984;49.268;12.302;2023-08-06T09:31:08;21.10;99.90
17728;DHT22;8984;49.268;12.302;2023-08-06T09:33:36;21.30;99.90
17728;DHT22;8984;49.268;12.302;2023-08-06T09:36:10;21.30;99.90
17728;DHT22;8984;49.268;12.302;2023-08-06T09:38:39;21.50;99.90
17728;DHT22;8984;49.268;12.302;2023-08-06T09:41:06;21.40;99.90
17728;DHT22;8984;49.268;12.302;2023-08-06T09:43:40;21.50;99.90
17728;DHT22;8984;49.268;12.302;2023-08-06T09:46:11;21.70;99.90
17728;DHT22;8984;49.268;12.302;2023-08-06T09:48:39;21.90;99.90
17728;DHT22;8984;49.268;12.302;2023-08-06T09:51:08;21.70;99.90
17728;DHT22;8984;49.268;12.302;2023-08-06T09:53:38;21.70;99.90
17728;DHT22;8984;49.268;12.302;2023-08-06T09:56:06;21.60;99.90
17728;DHT22;8984;49.268;12.302;2023-08-06T09:58:36;21.00;99.90
17728;DHT22;8984;49.268;12.302;2023-08-06T10:01:04;20.40;99.90
17728;DHT22;8984;49.268;12.302;2023-08-06T10:03:32;20.20;99.90
17728;DHT22;8984;49.268;12.302;2023-08-06T10:06:00;20.00;99.90
17728;DHT22;8984;49.268;12.302;2023-08-06T10:08:31;19.90;99.90
17728;DHT22;8984;49.268;12.302;2023-08-06T10:11:00;19.90;99.90
17728;DHT22;8984;49.268;12.302;2023-08-06T10:13:29;19.80;99.90
17728;DHT22;8984;49.268;12.302;2023-08-06T10:15:56;19.50;99.90
17728;DHT22;8984;49.268;12.302;2023-08-06T10:18:24;19.40;99.90
17728;DHT22;8984;49.268;12.302;2023-08-06T10:20:51;19.20;99.90
17728;DHT22;8984;49.268;12.302;2023-08-06T10:23:18;18.80;99.90
17728;DHT22;8984;49.268;12.302;2023-08-06T10:25:53;18.70;99.90
17728;DHT22;8984;49.268;12.302;2023-08-06T10:28:34;18.50;99.90
17728;DHT22;8984;49.268;12.302;2023-08-06T10:31:00;18.50;99.90
17728;DHT22;8984;49.268;12.302;2023-08-06T10:33:40;18.40;99.90
17728;DHT22;8984;49.268;12.302;2023-08-06T10:36:08;18.60;99.90
17728;DHT22;8984;49.268;12.302;2023-08-06T10:38:44;18.70;99.90
17728;DHT22;8984;49.268;12.302;2023-08-06T10:41:16;19.00;99.90
17728;DHT22;8984;49.268;12.302;2023-08-06T10:43:47;19.30;99.90
17728;DHT22;8984;49.268;12.302;2023-08-06T10:46:22;19.50;99.90
17728;DHT22;8984;49.268;12.302;2023-08-06T10:48:49;19.40;99.90
17728;DHT22;8984;49.268;12.302;2023-08-06T10:51:17;19.50;99.90
17728;DHT22;8984;49.268;12.302;2023-08-06T10:53:45;19.60;99.90
17728;DHT22;8984;49.268;12.302;2023-08-06T10:56:12;19.80;99.90
17728;DHT22;8984;49.268;12.302;2023-08-06T10:58:40;19.70;99.90
17728;DHT22;8984;49.268;12.302;2023-08-06T11:01:08;19.70;99.90
17728;DHT22;8984;49.268;12.302;2023-08-06T11:03:36;19.90;99.90
17728;DHT22;8984;49.268;12.302;2023-08-06T11:06:04;20.10;99.90
17728;DHT22;8984;49.268;12.302;2023-08-06T11:08:34;20.30;99.90
17728;DHT22;8984;49.268;12.302;2023-08-06T11:11:08;20.40;99.90
17728;DHT22;8984;49.268;12.302;2023-08-06T11:13:36;20.30;99.90
17728;DHT22;8984;49.268;12.302;2023-08-06T11:16:05;20.30;99.90
17728;DHT22;8984;49.268;12.302;2023-08-06T11:18:34;20.30;99.90
17728;DHT22;8984;49.268;12.302;2023-08-06T11:21:01;20.20;99.90
17728;DHT22;8984;49.268;12.302;2023-08-06T11:23:29;20.30;99.90
17728;DHT22;8984;49.268;12.302;2023-08-06T11:25:56;20.40;99.90
17728;DHT22;8984;49.268;12.302;2023-08-06T11:28:23;20.60;99.90
17728;DHT22;8984;49.268;12.302;2023-08-06T11:30:50;20.80;99.90
17728;DHT22;8984;49.268;12.302;2023-08-06T11:33:20;20.90;99.90
17728;DHT22;8984;49.268;12.302;2023-08-06T11:35:49;20.70;99.90
17728;DHT22;8984;49.268;12.302;2023-08-06T11:38:16;20.70;99.90
17728;DHT22;8984;49.268;12.302;2023-08-06T11:40:44;20.80;99.90
17728;DHT22;8984;49.268;12.302;2023-08-06T11:43:11;20.70;99.90
17728;DHT22;8984;49.268;12.302;2023-08-06T11:45:38;20.70;99.90
17728;DHT22;8984;49.268;12.302;2023-08-06T11:48:05;20.60;99.90
17728;DHT22;8984;49.268;12.302;2023-08-06T11:50:36;20.70;99.90
17728;DHT22;8984;49.268;12.302;2023-08-06T11:53:05;20.80;99.90
17728;DHT22;8984;49.268;12.302;2023-08-06T11:55:32;20.80;99.90
17728;DHT22;8984;49.268;12.302;2023-08-06T11:58:03;20.70;99.90
17728;DHT22;8984;49.268;12.302;2023-08-06T12:00:30;20.90;99.90
17728;DHT22;8984;49.268;12.302;2023-08-06T12:02:57;20.90;99.90
17728;DHT22;8984;49.268;12.302;2023-08-06T12:05:29;21.00;99.90
17728;DHT22;8984;49.268;12.302;2023-08-06T12:07:57;21.20;99.90
17728;DHT22;8984;49.268;12.302;2023-08-06T12:10:27;20.80;99.90
17728;DHT22;8984;49.268;12.302;2023-08-06T12:12:54;21.20;99.90
17728;DHT22;8984;49.268;12.302;2023-08-06T12:15:22;20.90;99.90
17728;DHT22;8984;49.268;12.302;2023-08-06T12:17:49;21.20;99.90
17728;DHT22;8984;49.268;12.302;2023-08-06T12:20:16;21.50;99.90
17728;DHT22;8984;49.268;12.302;2023-08-06T12:22:43;21.60;99.90
17728;DHT22;8984;49.268;12.302;2023-08-06T12:25:11;21.70;99.90
17728;DHT22;8984;49.268;12.302;2023-08-06T12:27:41;21.70;99.90
17728;DHT22;8984;49.268;12.302;2023-08-06T12:30:08;21.50;99.90
17728;DHT22;8984;49.268;12.302;2023-08-06T12:32:36;21.00;99.90
17728;DHT22;8984;49.268;12.302;2023-08-06T12:35:04;21.10;99.90
17728;DHT22;8984;49.268;12.302;2023-08-06T12:37:32;21.30;99.90
17728;DHT22;8984;49.268;12.302;2023-08-06T12:39:59;21.70;99.90
17728;DHT22;8984;49.268;12.302;2023-08-06T12:42:26;21.60;99.90
17728;DHT22;8984;49.268;12.302;2023-08-06T12:44:54;21.60;99.90
17728;DHT22;8984;49.268;12.302;2023-08-06T12:47:21;21.70;99.90
17728;DHT22;8984;49.268;12.302;2023-08-06T12:49:49;21.80;99.90
17728;DHT22;8984;49.268;12.302;2023-08-06T12:52:16;21.80;99.90
17728;DHT22;8984;49.268;12.302;2023-08-06T12:54:45;22.10;99.90
17728;DHT22;8984;49.268;12.302;2023-08-06T12:57:12;22.00;99.90
17728;DHT22;8984;49.268;12.302;2023-08-06T12:59:39;22.00;99.90
17728;DHT22;8984;49.268;12.302;2023-08-06T13:02:07;21.80;99.90
17728;DHT22;8984;49.268;12.302;2023-08-06T13:04:34;21.90;99.90
17728;DHT22;8984;49.268;12.302;2023-08-06T13:07:01;21.90;99.90
17728;DHT22;8984;49.268;12.302;2023-08-06T13:09:28;21.70;99.90
17728;DHT22;8984;49.268;12.302;2023-08-06T13:11:55;21.50;99.90
17728;DHT22;8984;49.268;12.302;2023-08-06T13:14:22;20.50;99.90
17728;DHT22;8984;49.268;12.302;2023-08-06T13:16:48;19.80;99.90
17728;DHT22;8984;49.268;12.302;2023-08-06T13:19:17;19.90;99.90
17728;DHT22;8984;49.268;12.302;2023-08-06T13:22:01;19.90;99.90
17728;DHT22;8984;49.268;12.302;2023-08-06T13:24:29;19.60;99.90
17728;DHT22;8984;49.268;12.302;2023-08-06T13:26:56;19.60;99.90
17728;DHT22;8984;49.268;12.302;2023-08-06T13:29:24;19.50;99.90
17728;DHT22;8984;49.268;12.302;2023-08-06T13:31:51;19.50;99.90
17728;DHT22;8984;49.268;12.302;2023-08-06T13:34:19;19.60;99.90
17728;DHT22;8984;49.268;12.302;2023-08-06T13:36:46;19.70;99.90
17728;DHT22;8984;49.268;12.302;2023-08-06T13:39:13;19.70;99.90
17728;DHT22;8984;49.268;12.302;2023-08-06T13:41:42;19.80;99.90
17728;DHT22;8984;49.268;12.302;2023-08-06T13:44:08;19.90;99.90
17728;DHT22;8984;49.268;12.302;2023-08-06T13:46:36;20.00;99.90
17728;DHT22;8984;49.268;12.302;2023-08-06T13:49:03;20.20;99.90
17728;DHT22;8984;49.268;12.302;2023-08-06T13:51:31;20.20;99.90
17728;DHT22;8984;49.268;12.302;2023-08-06T13:53:59;20.20;99.90
17728;DHT22;8984;49.268;12.302;2023-08-06T13:56:26;20.20;99.90
17728;DHT22;8984;49.268;12.302;2023-08-06T13:58:53;20.10;99.90
17728;DHT22;8984;49.268;12.302;2023-08-06T14:01:20;20.10;99.90
17728;DHT22;8984;49.268;12.302;2023-08-06T14:03:46;20.20;99.90
17728;DHT22;8984;49.268;12.302;2023-08-06T14:06:13;20.40;99.90
17728;DHT22;8984;49.268;12.302;2023-08-06T14:08:41;20.20;99.90
17728;DHT22;8984;49.268;12.302;2023-08-06T14:11:08;20.30;99.90
17728;DHT22;8984;49.268;12.302;2023-08-06T14:13:36;20.10;99.90
17728;DHT22;8984;49.268;12.302;2023-08-06T14:16:03;19.60;99.90
17728;DHT22;8984;49.268;12.302;2023-08-06T14:18:29;19.10;99.90
17728;DHT22;8984;49.268;12.302;2023-08-06T14:20:56;18.80;99.90
17728;DHT22;8984;49.268;12.302;2023-08-06T14:23:23;18.50;99.90
17728;DHT22;8984;49.268;12.302;2023-08-06T14:25:51;18.40;99.90
17728;DHT22;8984;49.268;12.302;2023-08-06T14:28:18;18.40;99.90
17728;DHT22;8984;49.268;12.302;2023-08-06T14:30:45;18.20;99.90
17728;DHT22;8984;49.268;12.302;2023-08-06T14:33:12;18.40;99.90
17728;DHT22;8984;49.268;12.302;2023-08-06T14:35:39;18.50;99.90
17728;DHT22;8984;49.268;12.302;2023-08-06T14:38:05;18.60;99.90
17728;DHT22;8984;49.268;12.302;2023-08-06T14:40:33;18.80;99.90
17728;DHT22;8984;49.268;12.302;2023-08-06T14:43:05;19.00;99.90
17728;DHT22;8984;49.268;12.302;2023-08-06T14:45:32;19.10;99.90
17728;DHT22;8984;49.268;12.302;2023-08-06T14:47:59;19.00;99.90
17728;DHT22;8984;49.268;12.302;2023-08-06T14:50:25;19.20;99.90
17728;DHT22;8984;49.268;12.302;2023-08-06T14:52:52;19.40;99.90
17728;DHT22;8984;49.268;12.302;2023-08-06T14:55:23;19.50;99.90
17728;DHT22;8984;49.268;12.302;2023-08-06T14:57:50;19.40;99.90
17728;DHT22;8984;49.268;12.302;2023-08-06T15:00:19;19.20;99.90
17728;DHT22;8984;49.268;12.302;2023-08-06T15:02:46;18.50;99.90
17728;DHT22;8984;49.268;12.302;2023-08-06T15:05:12;18.10;99.90
17728;DHT22;8984;49.268;12.302;2023-08-06T15:07:39;18.00;99.90
17728;DHT22;8984;49.268;12.302;2023-08-06T15:10:07;17.80;99.90
17728;DHT22;8984;49.268;12.302;2023-08-06T15:12:35;17.90;99.90
17728;DHT22;8984;49.268;12.302;2023-08-06T15:15:02;18.20;99.90
17728;DHT22;8984;49.268;12.302;2023-08-06T15:17:30;18.40;99.90
17728;DHT22;8984;49.268;12.302;2023-08-06T15:19:57;18.50;99.90
17728;DHT22;8984;49.268;12.302;2023-08-06T15:22:25;18.50;99.90
17728;DHT22;8984;49.268;12.302;2023-08-06T15:24:52;18.40;99.90
17728;DHT22;8984;49.268;12.302;2023-08-06T15:27:19;18.40;99.90
17728;DHT22;8984;49.268;12.302;2023-08-06T15:29:45;18.30;99.90
17728;DHT22;8984;49.268;12.302;2023-08-06T15:32:12;18.40;99.90